createdAt,value
2023-02-04T00:00:37.638Z,94.66
2023-02-04T00:03:05.766Z,95.30
2023-02-04T00:05:33.545Z,95.80
2023-02-04T00:08:01.241Z,96.78
2023-02-04T00:10:29.716Z,97.16
2023-02-04T00:12:57.630Z,97.22
2023-02-04T00:15:25.608Z,98.20
2023-02-04T00:17:53.313Z,98.23
2023-02-04T00:20:21.041Z,98.29
2023-02-04T00:22:48.764Z,98.36
2023-02-04T00:25:17.197Z,98.46
2023-02-04T00:27:47.021Z,98.67
2023-02-04T00:30:14.806Z,98.76
2023-02-04T00:32:42.280Z,98.86
2023-02-04T00:35:10.021Z,98.20
2023-02-04T00:37:37.735Z,98.71
2023-02-04T00:40:08.454Z,98.60
2023-02-04T00:42:36.210Z,97.85
2023-02-04T00:45:03.898Z,98.58
2023-02-04T00:47:31.490Z,98.78
2023-02-04T00:49:59.120Z,98.04
2023-02-04T00:52:26.700Z,97.57
2023-02-04T00:54:54.195Z,97.70
2023-02-04T00:57:21.658Z,95.76
2023-02-04T00:59:49.254Z,95.28
2023-02-04T01:02:18.374Z,96.78
2023-02-04T01:04:46.398Z,95.50
2023-02-04T01:07:14.035Z,96.28
2023-02-04T01:09:41.713Z,96.92
2023-02-04T01:12:09.314Z,97.16
2023-02-04T01:14:37.274Z,97.02
2023-02-04T01:17:04.876Z,97.49
2023-02-04T01:19:32.498Z,96.95
2023-02-04T01:22:00.213Z,97.69
2023-02-04T01:24:27.805Z,98.25
2023-02-04T01:26:55.290Z,98.42
2023-02-04T01:29:23.126Z,98.63
2023-02-04T01:31:50.811Z,97.91
2023-02-04T01:34:18.577Z,98.38
2023-02-04T01:36:46.191Z,98.09
2023-02-04T01:39:14.261Z,97.54
2023-02-04T01:41:41.852Z,96.83
2023-02-04T01:44:09.693Z,97.32
2023-02-04T01:46:37.787Z,97.39
2023-02-04T01:49:06.945Z,97.49
2023-02-04T01:51:35.984Z,97.18
2023-02-04T01:54:03.822Z,97.71
2023-02-04T01:56:31.435Z,97.79
2023-02-04T01:58:59.633Z,97.03
2023-02-04T02:01:36.106Z,97.39
2023-02-04T02:04:04.921Z,97.31
2023-02-04T02:06:32.631Z,97.62
2023-02-04T02:09:00.369Z,97.96
2023-02-04T02:11:28.200Z,97.76
2023-02-04T02:13:55.686Z,98.03
2023-02-04T02:16:23.322Z,97.50
2023-02-04T02:18:53.657Z,97.75
2023-02-04T02:21:50.640Z,97.47
2023-02-04T02:24:29.519Z,97.31
2023-02-04T02:26:58.459Z,97.32
2023-02-04T02:29:26.895Z,96.64
2023-02-04T02:31:57.591Z,97.37
2023-02-04T02:34:26.289Z,97.34
2023-02-04T02:36:53.889Z,97.42
2023-02-04T02:39:22.101Z,96.93
2023-02-04T02:41:49.813Z,96.81
2023-02-04T02:44:17.770Z,96.59
2023-02-04T02:46:45.557Z,96.54
2023-02-04T02:49:16.107Z,97.17
2023-02-04T02:51:44.304Z,97.06
2023-02-04T02:54:20.657Z,97.53
2023-02-04T02:56:48.975Z,97.60
2023-02-04T02:59:17.789Z,96.82
2023-02-04T03:01:48.281Z,97.12
2023-02-04T03:08:37.263Z,97.31
2023-02-04T03:11:05.068Z,97.34
2023-02-04T03:13:34.101Z,97.45
2023-02-04T03:16:02.258Z,96.97
2023-02-04T03:18:31.406Z,96.97
2023-02-04T03:20:59.192Z,96.91
2023-02-04T03:23:27.518Z,97.26
2023-02-04T03:25:55.248Z,97.66
2023-02-04T03:28:22.850Z,97.58
2023-02-04T03:30:56.572Z,98.00
2023-02-04T03:33:26.832Z,97.57
2023-02-04T03:35:54.526Z,97.34
2023-02-04T03:38:22.007Z,97.27
2023-02-04T03:40:49.620Z,97.94
2023-02-04T03:43:17.112Z,98.14
2023-02-04T03:45:45.926Z,98.19
2023-02-04T03:48:13.754Z,97.92
2023-02-04T03:50:41.461Z,98.27
2023-02-04T03:53:09.304Z,97.61
2023-02-04T03:55:37.032Z,98.01
2023-02-04T03:58:05.462Z,97.90
2023-02-04T04:00:33.341Z,97.65
2023-02-04T04:03:01.092Z,97.61
2023-02-04T04:05:28.849Z,97.67
2023-02-04T04:07:56.468Z,97.51
2023-02-04T04:10:24.190Z,97.42
2023-02-04T04:12:51.695Z,97.40
2023-02-04T04:15:19.281Z,97.46
2023-02-04T04:17:47.119Z,97.67
2023-02-04T04:20:14.606Z,97.81
2023-02-04T04:22:42.212Z,97.92
2023-02-04T04:25:09.944Z,97.62
2023-02-04T04:27:37.653Z,97.77
2023-02-04T04:30:05.533Z,97.69
2023-02-04T04:32:33.106Z,97.34
2023-02-04T04:35:00.819Z,97.61
2023-02-04T04:37:28.528Z,98.04
2023-02-04T04:39:56.490Z,97.70
2023-02-04T04:42:23.964Z,97.59
2023-02-04T04:44:53.244Z,97.56
2023-02-04T04:47:20.871Z,97.59
2023-02-04T04:49:48.477Z,97.55
2023-02-04T04:52:16.663Z,97.40
2023-02-04T04:54:44.387Z,97.83
2023-02-04T04:57:11.989Z,97.49
2023-02-04T04:59:39.823Z,97.38
2023-02-04T05:02:12.102Z,97.46
2023-02-04T05:04:39.744Z,97.96
2023-02-04T05:07:07.434Z,98.16
2023-02-04T05:09:35.147Z,98.31
2023-02-04T05:12:03.110Z,98.84
2023-02-04T05:14:30.719Z,98.88
2023-02-04T05:16:58.331Z,98.74
2023-02-04T05:19:26.043Z,99.43
2023-02-04T05:21:53.647Z,99.39
2023-02-04T05:24:21.157Z,99.07
2023-02-04T05:26:48.972Z,99.48
2023-02-04T05:29:19.231Z,99.67
2023-02-04T05:31:46.830Z,99.02
2023-02-04T05:34:14.436Z,99.05
2023-02-04T05:36:42.288Z,99.31
2023-02-04T05:39:10.099Z,98.98
2023-02-04T05:41:37.699Z,98.99
2023-02-04T05:44:06.019Z,99.01
2023-02-04T05:46:33.742Z,99.15
2023-02-04T05:49:01.476Z,98.97
2023-02-04T05:51:29.093Z,99.02
2023-02-04T05:53:56.790Z,98.71
2023-02-04T05:56:25.488Z,98.80
2023-02-04T05:58:53.201Z,98.53
2023-02-04T06:01:20.847Z,99.15
2023-02-04T06:03:48.391Z,99.02
2023-02-04T06:06:16.001Z,98.78
2023-02-04T06:08:43.706Z,98.85
2023-02-04T06:11:11.428Z,98.81
2023-02-04T06:13:39.159Z,99.31
2023-02-04T06:16:07.352Z,98.93
2023-02-04T06:18:34.972Z,98.78
2023-02-04T06:21:04.740Z,99.14
2023-02-04T06:23:34.403Z,99.42
2023-02-04T06:26:03.046Z,99.17
2023-02-04T06:28:30.756Z,100.00
2023-02-04T06:30:58.506Z,100.00
2023-02-04T06:33:26.091Z,99.84
2023-02-04T06:35:53.821Z,100.00
2023-02-04T06:38:22.531Z,100.00
2023-02-04T06:40:53.774Z,99.74
2023-02-04T06:43:22.608Z,100.00
2023-02-04T06:45:51.476Z,99.86
2023-02-04T06:48:19.023Z,100.00
2023-02-04T06:50:46.735Z,99.99
2023-02-04T06:53:14.384Z,100.00
2023-02-04T06:55:42.557Z,99.98
2023-02-04T06:58:10.503Z,100.00
2023-02-04T07:00:41.120Z,99.96
2023-02-04T07:03:08.740Z,99.96
2023-02-04T07:05:38.245Z,99.92
2023-02-04T07:08:06.568Z,99.83
2023-02-04T07:10:34.723Z,99.88
2023-02-04T07:13:02.242Z,100.00
2023-02-04T07:15:31.815Z,100.00
2023-02-04T07:18:00.323Z,99.99
2023-02-04T07:20:27.948Z,99.91
2023-02-04T07:22:57.731Z,100.00
2023-02-04T07:25:25.671Z,99.41
2023-02-04T07:27:53.565Z,99.80
2023-02-04T07:30:21.409Z,99.62
2023-02-04T07:32:52.181Z,99.88
2023-02-04T07:35:19.764Z,99.43
2023-02-04T07:37:54.989Z,99.23
2023-02-04T07:40:22.835Z,98.95
2023-02-04T07:42:50.483Z,98.91
2023-02-04T07:45:18.084Z,98.57
2023-02-04T07:47:45.690Z,100.00
2023-02-04T07:50:13.537Z,99.66
2023-02-04T07:52:41.273Z,100.00
2023-02-04T07:55:09.220Z,100.00
2023-02-04T07:57:37.182Z,100.00
2023-02-04T08:00:06.819Z,100.00
2023-02-04T08:02:34.467Z,100.00
2023-02-04T08:05:02.140Z,100.00
2023-02-04T08:07:29.641Z,100.00
2023-02-04T08:09:57.215Z,100.00
2023-02-04T08:12:24.946Z,100.00
2023-02-04T08:14:53.532Z,100.00
2023-02-04T08:17:21.815Z,100.00
2023-02-04T08:19:49.301Z,100.00
2023-02-04T08:22:17.395Z,100.00
2023-02-04T08:24:45.225Z,100.00
2023-02-04T08:27:12.847Z,100.00
2023-02-04T08:29:40.542Z,100.00
2023-02-04T08:32:10.321Z,100.00
2023-02-04T08:34:37.903Z,100.00
2023-02-04T08:37:05.560Z,100.00
2023-02-04T08:39:33.111Z,100.00
2023-02-04T08:42:00.708Z,100.00
2023-02-04T08:44:28.339Z,99.85
2023-02-04T08:46:56.154Z,99.57
2023-02-04T08:49:23.910Z,99.73
2023-02-04T08:51:55.454Z,99.05
2023-02-04T08:54:22.983Z,98.94
2023-02-04T08:56:50.554Z,99.30
2023-02-04T08:59:18.148Z,99.09
2023-02-04T09:01:51.059Z,98.97
2023-02-04T09:04:19.721Z,98.90
2023-02-04T09:06:47.798Z,98.41
2023-02-04T09:09:15.877Z,97.86
2023-02-04T09:11:45.763Z,97.63
2023-02-04T09:14:13.484Z,97.95
2023-02-04T09:16:41.138Z,97.74
2023-02-04T09:19:11.086Z,97.41
2023-02-04T09:21:43.751Z,96.60
2023-02-04T09:24:11.224Z,96.08
2023-02-04T09:26:38.876Z,96.54
2023-02-04T09:29:06.427Z,95.75
2023-02-04T09:31:34.244Z,95.85
2023-02-04T09:34:01.990Z,95.38
2023-02-04T09:36:30.702Z,94.65
2023-02-04T09:38:58.266Z,94.81
2023-02-04T09:41:26.002Z,95.33
2023-02-04T09:43:56.687Z,94.63
2023-02-04T09:46:28.686Z,94.79
2023-02-04T09:48:57.933Z,93.45
2023-02-04T09:51:30.090Z,93.00
2023-02-04T09:54:09.949Z,92.10
2023-02-04T09:56:37.675Z,91.60
2023-02-04T09:59:14.479Z,91.62
2023-02-04T10:01:42.306Z,92.07
2023-02-04T10:04:12.943Z,90.55
2023-02-04T10:06:41.598Z,88.69
2023-02-04T10:09:12.911Z,89.83
2023-02-04T10:11:43.747Z,88.69
2023-02-04T10:14:15.806Z,87.32
2023-02-04T10:16:46.548Z,88.33
2023-02-04T10:19:16.062Z,86.19
2023-02-04T10:21:48.192Z,86.22
2023-02-04T10:24:19.426Z,87.36
2023-02-04T10:26:47.002Z,88.50
2023-02-04T10:29:20.243Z,87.47
2023-02-04T10:31:50.214Z,85.14
2023-02-04T10:34:22.076Z,85.07
2023-02-04T10:36:54.564Z,83.74
2023-02-04T10:39:24.455Z,84.83
2023-02-04T10:42:00.492Z,85.79
2023-02-04T10:44:34.057Z,86.89
2023-02-04T10:47:07.431Z,82.95
2023-02-04T10:49:35.137Z,82.12
2023-02-04T10:52:03.475Z,82.47
2023-02-04T10:54:38.029Z,82.83
2023-02-04T10:57:17.624Z,79.40
2023-02-04T10:59:46.906Z,81.07
2023-02-04T11:02:43.305Z,76.18
2023-02-04T11:09:14.072Z,78.65
2023-02-04T11:11:49.679Z,78.10
2023-02-04T11:14:29.275Z,77.33
2023-02-04T11:17:01.065Z,79.89
2023-02-04T11:19:38.566Z,78.66
2023-02-04T11:22:08.887Z,76.23
2023-02-04T11:24:36.483Z,74.71
2023-02-04T11:27:25.327Z,72.47
2023-02-04T11:29:53.288Z,73.28
2023-02-04T11:32:35.436Z,73.93
2023-02-04T11:35:25.121Z,75.39
2023-02-04T11:37:53.723Z,74.57
2023-02-04T11:40:35.535Z,71.09
2023-02-04T11:43:15.615Z,75.13
2023-02-04T11:45:43.697Z,75.95
2023-02-04T11:48:17.671Z,74.49
2023-02-04T11:50:59.082Z,71.14
2023-02-04T11:53:33.852Z,75.61
2023-02-04T11:56:04.462Z,75.93
2023-02-04T11:58:32.423Z,74.06
2023-02-04T12:01:00.148Z,70.59
2023-02-04T12:03:34.493Z,69.01
2023-02-04T12:06:05.054Z,66.41
2023-02-04T12:08:34.963Z,61.71
2023-02-04T12:11:11.351Z,60.95
2023-02-04T12:13:50.573Z,65.25
2023-02-04T12:16:18.363Z,68.35
2023-02-04T12:18:45.998Z,65.47
2023-02-04T12:21:14.567Z,64.99
2023-02-04T12:23:42.777Z,63.94
2023-02-04T12:26:10.965Z,65.94
2023-02-04T12:28:38.693Z,64.55
2023-02-04T12:31:06.392Z,65.80
2023-02-04T12:33:34.014Z,70.51
2023-02-04T12:36:01.738Z,69.49
2023-02-04T12:38:29.452Z,68.83
2023-02-04T12:40:57.072Z,70.42
2023-02-04T12:43:28.294Z,72.49
2023-02-04T12:45:56.092Z,70.72
2023-02-04T12:48:23.662Z,69.62
2023-02-04T12:50:51.433Z,69.91
2023-02-04T12:53:18.923Z,72.20
2023-02-04T12:55:46.622Z,74.06
2023-02-04T12:58:14.463Z,71.48
2023-02-04T13:00:42.833Z,74.70
2023-02-04T13:03:10.514Z,74.06
2023-02-04T13:05:38.462Z,74.13
2023-02-04T13:08:06.087Z,74.62
2023-02-04T13:10:33.671Z,67.23
2023-02-04T13:13:04.035Z,69.65
2023-02-04T13:15:32.227Z,73.31
2023-02-04T13:18:00.203Z,73.31
2023-02-04T13:20:27.803Z,70.42
2023-02-04T13:22:55.524Z,71.04
2023-02-04T13:25:23.370Z,74.31
2023-02-04T13:27:51.138Z,66.39
2023-02-04T13:30:18.863Z,70.49
2023-02-04T13:32:46.659Z,72.38
2023-02-04T13:35:14.501Z,66.60
2023-02-04T13:37:42.091Z,65.77
2023-02-04T13:40:12.342Z,70.96
2023-02-04T13:42:39.940Z,66.69
2023-02-04T13:45:12.363Z,65.54
2023-02-04T13:47:40.098Z,64.04
2023-02-04T13:50:08.138Z,70.15
2023-02-04T13:52:35.864Z,67.51
2023-02-04T13:55:03.599Z,67.29
2023-02-04T13:57:33.004Z,65.27
2023-02-04T14:00:00.881Z,61.18
2023-02-04T14:02:28.504Z,61.96
2023-02-04T14:04:57.853Z,65.09
2023-02-04T14:07:25.911Z,64.61
2023-02-04T14:09:53.512Z,63.33
2023-02-04T14:12:20.989Z,59.88
2023-02-04T14:14:48.600Z,61.13
2023-02-04T14:17:16.332Z,61.66
2023-02-04T14:19:44.044Z,65.83
2023-02-04T14:22:13.362Z,64.26
2023-02-04T14:24:42.764Z,63.52
2023-02-04T14:27:10.958Z,68.14
2023-02-04T14:29:38.536Z,61.32
2023-02-04T14:32:06.123Z,59.68
2023-02-04T14:34:33.862Z,66.35
2023-02-04T14:37:01.550Z,68.76
2023-02-04T14:39:29.287Z,72.26
2023-02-04T14:41:56.892Z,70.54
2023-02-04T14:44:24.403Z,67.95
2023-02-04T14:46:51.983Z,62.99
2023-02-04T14:49:19.938Z,67.35
2023-02-04T14:51:48.037Z,71.39
2023-02-04T14:54:16.586Z,65.87
2023-02-04T14:56:46.582Z,65.44
2023-02-04T14:59:13.983Z,69.42
2023-02-04T15:01:42.523Z,68.51
2023-02-04T15:04:13.751Z,65.17
2023-02-04T15:06:41.552Z,69.91
2023-02-04T15:09:09.048Z,66.19
2023-02-04T15:11:36.653Z,68.61
2023-02-04T15:14:04.367Z,64.09
2023-02-04T15:16:32.127Z,68.35
2023-02-04T15:18:59.920Z,64.84
2023-02-04T15:21:27.650Z,66.49
2023-02-04T15:23:55.597Z,64.37
2023-02-04T15:26:25.138Z,68.86
2023-02-04T15:28:52.730Z,69.63
2023-02-04T15:31:20.649Z,71.78
2023-02-04T15:33:48.171Z,69.61
2023-02-04T15:36:17.708Z,71.28
2023-02-04T15:38:46.386Z,69.56
2023-02-04T15:41:14.004Z,72.99
2023-02-04T15:43:41.691Z,67.24
2023-02-04T15:46:09.343Z,68.44
2023-02-04T15:48:36.890Z,68.17
2023-02-04T15:51:04.620Z,70.08
2023-02-04T15:53:32.101Z,71.60
2023-02-04T15:55:59.834Z,71.00
2023-02-04T15:58:27.428Z,73.72
2023-02-04T16:00:54.913Z,73.24
2023-02-04T16:03:22.520Z,71.85
2023-02-04T16:05:50.136Z,67.00
2023-02-04T16:08:18.077Z,66.93
2023-02-04T16:10:45.915Z,72.36
2023-02-04T16:13:13.544Z,68.67
2023-02-04T16:15:41.396Z,68.60
2023-02-04T16:18:08.844Z,66.69
2023-02-04T16:20:36.455Z,71.97
2023-02-04T16:23:04.536Z,73.10
2023-02-04T16:25:32.473Z,75.14
2023-02-04T16:28:00.493Z,75.49
2023-02-04T16:30:30.885Z,75.78
2023-02-04T16:32:58.285Z,70.85
2023-02-04T16:35:27.257Z,75.40
2023-02-04T16:37:54.809Z,76.67
2023-02-04T16:40:22.291Z,73.95
2023-02-04T16:42:49.911Z,74.54
2023-02-04T16:45:17.626Z,76.38
2023-02-04T16:47:45.096Z,74.11
2023-02-04T16:50:12.817Z,72.57
2023-02-04T16:52:40.419Z,74.34
2023-02-04T16:55:09.350Z,73.78
2023-02-04T16:57:37.063Z,73.97
2023-02-04T17:00:07.056Z,73.88
2023-02-04T17:02:37.300Z,76.65
2023-02-04T17:05:05.878Z,70.03
2023-02-04T17:07:35.507Z,75.25
2023-02-04T17:10:03.469Z,76.38
2023-02-04T17:12:31.104Z,77.02
2023-02-04T17:14:58.669Z,73.13
2023-02-04T17:17:26.154Z,74.05
2023-02-04T17:24:13.008Z,72.45
2023-02-04T17:26:40.978Z,72.73
2023-02-04T17:29:15.625Z,74.45
2023-02-04T17:31:43.842Z,76.12
2023-02-04T17:34:11.772Z,76.30
2023-02-04T17:36:39.378Z,76.65
2023-02-04T17:39:07.738Z,75.72
2023-02-04T17:41:38.077Z,76.28
2023-02-04T17:44:05.912Z,76.70
2023-02-04T17:46:38.477Z,76.52
2023-02-04T17:49:06.151Z,76.59
2023-02-04T17:51:34.095Z,76.88
2023-02-04T17:54:01.753Z,77.62
2023-02-04T17:56:29.551Z,77.63
2023-02-04T17:58:57.992Z,77.54
2023-02-04T18:01:26.065Z,77.28
2023-02-04T18:03:53.914Z,76.59
2023-02-04T18:06:27.231Z,76.80
2023-02-04T18:09:02.131Z,76.90
2023-02-04T18:11:33.160Z,76.05
2023-02-04T18:14:18.078Z,75.94
2023-02-04T18:16:46.143Z,75.96
2023-02-04T18:19:20.011Z,74.86
2023-02-04T18:21:55.416Z,76.10
2023-02-04T18:24:36.470Z,77.30
2023-02-04T18:27:15.530Z,76.72
2023-02-04T18:29:44.728Z,76.93
2023-02-04T18:32:22.123Z,76.64
2023-02-04T18:34:52.014Z,76.31
2023-02-04T18:37:46.278Z,77.05
2023-02-04T18:40:20.351Z,77.64
2023-02-04T18:42:48.433Z,77.30
2023-02-04T18:45:27.583Z,77.51
2023-02-04T18:48:01.132Z,78.02
2023-02-04T18:50:32.772Z,78.07
2023-02-04T18:53:20.095Z,78.08
2023-02-04T18:55:58.651Z,77.88
2023-02-04T18:58:34.519Z,78.44
2023-02-04T19:01:32.265Z,75.99
2023-02-04T19:04:23.234Z,74.41
2023-02-04T19:06:52.384Z,74.56
2023-02-04T19:09:28.066Z,75.22
2023-02-04T19:11:58.026Z,76.11
2023-02-04T19:14:40.048Z,77.32
2023-02-04T19:17:08.471Z,77.70
2023-02-04T19:19:40.914Z,77.39
2023-02-04T19:22:20.838Z,77.49
2023-02-04T19:24:58.640Z,76.19
2023-02-04T19:27:34.313Z,78.10
2023-02-04T19:30:18.824Z,78.20
2023-02-04T19:32:46.639Z,78.15
2023-02-04T19:35:23.356Z,76.74
2023-02-04T19:38:06.154Z,77.85
2023-02-04T19:40:43.292Z,77.98
2023-02-04T19:43:53.683Z,77.95
2023-02-04T19:46:33.513Z,77.25
2023-02-04T19:49:24.037Z,77.81
2023-02-04T19:52:02.148Z,78.13
2023-02-04T19:54:38.681Z,78.28
2023-02-04T19:57:21.465Z,76.83
2023-02-04T19:59:49.098Z,75.92
2023-02-04T20:02:33.621Z,76.37
2023-02-04T20:05:02.064Z,76.57
2023-02-04T20:07:30.236Z,76.26
2023-02-04T20:10:02.801Z,76.39
2023-02-04T20:12:33.165Z,76.58
2023-02-04T20:15:04.078Z,75.60
2023-02-04T20:17:46.097Z,75.26
2023-02-04T20:20:18.370Z,75.55
2023-02-04T20:22:58.099Z,76.81
2023-02-04T20:25:39.083Z,77.01
2023-02-04T20:28:43.008Z,76.56
2023-02-04T20:31:23.502Z,76.69
2023-02-04T20:33:56.679Z,77.19
2023-02-04T20:36:41.208Z,77.85
2023-02-04T20:39:36.037Z,77.42
2023-02-04T20:42:22.952Z,77.31
2023-02-04T20:44:52.218Z,77.85
2023-02-04T20:47:23.657Z,77.63
2023-02-04T20:49:56.698Z,77.70
2023-02-04T20:53:06.393Z,77.99
2023-02-04T20:55:35.224Z,77.82
2023-02-04T20:58:19.483Z,77.54
2023-02-04T21:00:52.338Z,76.97
2023-02-04T21:03:37.367Z,77.77
2023-02-04T21:06:27.881Z,77.47
2023-02-04T21:08:59.696Z,77.28
2023-02-04T21:11:27.273Z,76.99
2023-02-04T21:13:56.077Z,77.41
2023-02-04T21:16:23.555Z,77.48
2023-02-04T21:18:51.282Z,77.00
2023-02-04T21:21:20.461Z,76.97
2023-02-04T21:23:48.302Z,76.86
2023-02-04T21:26:16.122Z,76.97
2023-02-04T21:28:43.867Z,77.07
2023-02-04T21:31:12.059Z,77.62
2023-02-04T21:33:40.007Z,77.00
2023-02-04T21:36:08.215Z,77.25
2023-02-04T21:38:35.925Z,77.39
2023-02-04T21:45:01.395Z,77.13
2023-02-04T21:47:29.222Z,77.14
2023-02-04T21:49:57.061Z,77.57
2023-02-04T21:52:24.676Z,77.17
2023-02-04T21:54:52.279Z,77.20
2023-02-04T21:57:19.866Z,76.97
2023-02-04T21:59:49.229Z,76.81
2023-02-04T22:02:17.232Z,76.76
2023-02-04T22:04:44.833Z,76.54
2023-02-04T22:07:12.696Z,76.87
2023-02-04T22:09:40.535Z,76.67
2023-02-04T22:12:08.354Z,76.55
2023-02-04T22:14:36.136Z,76.79
2023-02-04T22:17:04.025Z,76.97
2023-02-04T22:19:31.786Z,76.87
2023-02-04T22:21:59.604Z,77.07
2023-02-04T22:24:27.349Z,76.79
2023-02-04T22:26:55.052Z,76.66
2023-02-04T22:33:35.731Z,76.53
2023-02-04T22:36:03.604Z,76.86
2023-02-04T22:38:31.179Z,76.91
2023-02-04T22:40:58.670Z,76.91
2023-02-04T22:43:26.410Z,76.17
2023-02-04T22:45:55.423Z,76.52
2023-02-04T22:48:23.141Z,76.46
2023-02-04T22:50:51.113Z,76.50
2023-02-04T22:53:18.834Z,75.91
2023-02-04T22:55:46.668Z,76.13
2023-02-04T22:58:14.167Z,76.56
2023-02-04T23:00:46.110Z,77.14
2023-02-04T23:03:13.818Z,76.83
2023-02-04T23:05:41.569Z,76.69
2023-02-04T23:08:09.255Z,76.79
2023-02-04T23:10:38.804Z,76.19
2023-02-04T23:13:06.768Z,76.16
2023-02-04T23:15:34.971Z,76.26
2023-02-04T23:18:02.780Z,76.28
2023-02-04T23:20:30.495Z,76.59
2023-02-04T23:22:58.200Z,76.30
2023-02-04T23:25:25.676Z,75.95
2023-02-04T23:27:53.460Z,76.29
2023-02-04T23:30:22.561Z,76.58
2023-02-04T23:32:51.129Z,76.27
2023-02-04T23:35:18.642Z,76.14
2023-02-04T23:37:46.232Z,75.95
2023-02-04T23:40:13.942Z,76.10
2023-02-04T23:42:41.552Z,76.02
2023-02-04T23:45:09.885Z,76.17
2023-02-04T23:47:37.490Z,76.27
2023-02-04T23:50:05.548Z,76.71
2023-02-04T23:52:33.307Z,76.40
2023-02-04T23:55:01.107Z,76.31
2023-02-04T23:57:28.821Z,76.53
2023-02-04T23:59:56.309Z,76.45
